createdAt,value
2023-10-02T00:01:19.714Z,101459.13
2023-10-02T00:04:25.924Z,101457.38
2023-10-02T00:07:31.220Z,101460.84
2023-10-02T00:10:33.697Z,101456.34
2023-10-02T00:13:36.749Z,101458.06
2023-10-02T00:16:39.217Z,101456.28
2023-10-02T00:19:48.600Z,101458.06
2023-10-02T00:22:52.410Z,101456.22
2023-10-02T00:26:05.425Z,101449.00
2023-10-02T00:29:11.355Z,101445.41
2023-10-02T00:32:14.187Z,101447.13
2023-10-02T00:35:16.961Z,101441.06
2023-10-02T00:38:19.862Z,101447.44
2023-10-02T00:41:23.324Z,101444.88
2023-10-02T00:44:42.672Z,101447.56
2023-10-02T00:47:48.698Z,101442.22
2023-10-02T00:51:00.461Z,101436.75
2023-10-02T00:54:22.972Z,101442.81
2023-10-02T00:57:28.616Z,101431.09
2023-10-02T01:00:37.919Z,101425.91
2023-10-02T01:04:01.202Z,101445.50
2023-10-02T01:07:13.192Z,101453.25
2023-10-02T01:10:22.038Z,101449.72
2023-10-02T01:13:39.539Z,101464.09
2023-10-02T01:16:52.579Z,101454.41
2023-10-02T01:19:57.625Z,101461.38
2023-10-02T01:23:17.708Z,101450.66
2023-10-02T01:26:20.570Z,101462.28
2023-10-02T01:29:24.269Z,101453.56
2023-10-02T01:32:27.562Z,101453.69
2023-10-02T01:35:30.555Z,101455.53
2023-10-02T01:38:35.499Z,101454.75
2023-10-02T01:41:39.291Z,101444.28
2023-10-02T01:44:56.796Z,101438.19
2023-10-02T01:48:00.325Z,101439.13
2023-10-02T01:51:17.372Z,101444.66
2023-10-02T01:54:23.753Z,101442.19
2023-10-02T01:57:26.447Z,101442.38
2023-10-02T02:00:29.516Z,101451.28
2023-10-02T02:03:32.141Z,101441.66
2023-10-02T02:06:35.875Z,101448.88
2023-10-02T02:09:44.432Z,101458.72
2023-10-02T02:12:56.784Z,101448.13
2023-10-02T02:16:09.188Z,101464.16
2023-10-02T02:19:13.729Z,101468.66
2023-10-02T02:22:18.029Z,101463.28
2023-10-02T02:25:29.093Z,101466.97
2023-10-02T02:28:31.528Z,101462.59
2023-10-02T02:31:34.789Z,101468.94
2023-10-02T02:34:38.329Z,101466.38
2023-10-02T02:37:43.285Z,101468.22
2023-10-02T02:40:45.815Z,101461.97
2023-10-02T02:43:49.345Z,101478.16
2023-10-02T02:46:55.442Z,101464.84
2023-10-02T02:50:01.273Z,101465.00
2023-10-02T02:53:24.474Z,101473.94
2023-10-02T02:56:29.611Z,101460.63
2023-10-02T02:59:32.391Z,101466.81
2023-10-02T03:02:35.271Z,101470.47
2023-10-02T03:05:42.692Z,101475.75
2023-10-02T03:08:47.318Z,101478.53
2023-10-02T03:11:52.236Z,101476.84
2023-10-02T03:14:56.691Z,101466.22
2023-10-02T03:18:00.557Z,101467.16
2023-10-02T03:21:23.630Z,101471.59
2023-10-02T03:24:26.163Z,101468.03
2023-10-02T03:27:28.934Z,101463.66
2023-10-02T03:30:45.077Z,101452.13
2023-10-02T03:33:47.863Z,101460.13
2023-10-02T03:36:54.709Z,101463.66
2023-10-02T03:40:00.469Z,101451.28
2023-10-02T03:43:20.594Z,101453.09
2023-10-02T03:46:37.276Z,101451.34
2023-10-02T03:49:42.572Z,101450.47
2023-10-02T03:53:05.257Z,101441.50
2023-10-02T03:56:26.607Z,101448.63
2023-10-02T03:59:33.325Z,101453.03
2023-10-02T04:02:38.374Z,101453.00
2023-10-02T04:05:44.837Z,101452.97
2023-10-02T04:08:47.364Z,101456.47
2023-10-02T04:11:52.059Z,101461.75
2023-10-02T04:14:55.557Z,101468.81
2023-10-02T04:17:59.062Z,101466.06
2023-10-02T04:21:08.035Z,101465.03
2023-10-02T04:24:13.641Z,101461.41
2023-10-02T04:27:20.018Z,101477.38
2023-10-02T04:30:26.581Z,101471.09
2023-10-02T04:33:38.401Z,101470.25
2023-10-02T04:36:44.972Z,101480.03
2023-10-02T04:39:57.398Z,101476.50
2023-10-02T04:43:10.811Z,101471.13
2023-10-02T04:46:16.066Z,101467.66
2023-10-02T04:49:19.021Z,101464.06
2023-10-02T04:52:36.143Z,101448.03
2023-10-02T04:55:45.286Z,101462.28
2023-10-02T04:58:59.305Z,101450.81
2023-10-02T05:02:23.762Z,101465.00
2023-10-02T05:05:32.040Z,101466.78
2023-10-02T05:08:42.646Z,101467.63
2023-10-02T05:11:58.980Z,101476.59
2023-10-02T05:15:08.736Z,101482.91
2023-10-02T05:18:18.348Z,101484.81
2023-10-02T05:21:37.560Z,101476.88
2023-10-02T05:24:43.088Z,101476.03
2023-10-02T05:27:48.829Z,101488.47
2023-10-02T05:30:51.349Z,101497.44
2023-10-02T05:33:58.829Z,101485.97
2023-10-02T05:37:14.223Z,101484.22
2023-10-02T05:40:21.735Z,101494.13
2023-10-02T05:43:26.682Z,101503.06
2023-10-02T05:46:49.832Z,101493.28
2023-10-02T05:49:55.085Z,101497.72
2023-10-02T05:52:58.943Z,101503.13
2023-10-02T05:56:08.317Z,101497.81
2023-10-02T05:59:12.077Z,101491.72
2023-10-02T06:02:16.313Z,101502.38
2023-10-02T06:05:19.862Z,101490.91
2023-10-02T06:08:25.046Z,101502.53
2023-10-02T06:11:29.864Z,101492.72
2023-10-02T06:14:40.864Z,101494.59
2023-10-02T06:17:45.277Z,101499.03
2023-10-02T06:21:02.579Z,101498.16
2023-10-02T06:24:06.317Z,101501.81
2023-10-02T06:27:15.502Z,101498.25
2023-10-02T06:30:18.512Z,101496.50
2023-10-02T06:33:23.231Z,101498.28
2023-10-02T06:36:26.389Z,101504.47
2023-10-02T06:39:30.607Z,101505.44
2023-10-02T06:42:35.035Z,101499.22
2023-10-02T06:45:53.877Z,101502.78
2023-10-02T06:48:57.706Z,101504.59
2023-10-02T06:52:12.604Z,101499.22
2023-10-02T06:55:15.521Z,101497.44
2023-10-02T06:58:18.800Z,101512.63
2023-10-02T07:01:22.012Z,101519.75
2023-10-02T07:04:31.292Z,101509.03
2023-10-02T07:07:34.264Z,101498.31
2023-10-02T07:10:43.714Z,101500.06
2023-10-02T07:13:53.013Z,101492.06
2023-10-02T07:17:13.320Z,101503.56
2023-10-02T07:20:17.159Z,101505.31
2023-10-02T07:23:24.853Z,101504.41
2023-10-02T07:26:46.182Z,101495.47
2023-10-02T07:29:48.844Z,101487.41
2023-10-02T07:32:53.377Z,101492.69
2023-10-02T07:35:56.198Z,101496.22
2023-10-02T07:39:02.172Z,101490.88
2023-10-02T07:42:11.720Z,101490.75
2023-10-02T07:45:26.019Z,101495.09
2023-10-02T07:48:32.274Z,101485.97
2023-10-02T07:51:38.474Z,101482.22
2023-10-02T07:54:46.917Z,101484.84
2023-10-02T07:57:59.565Z,101491.88
2023-10-02T08:01:12.715Z,101488.16
2023-10-02T08:04:15.868Z,101480.84
2023-10-02T08:07:27.516Z,101493.25
2023-10-02T08:10:51.051Z,101491.13
2023-10-02T08:13:54.495Z,101493.56
2023-10-02T08:17:00.820Z,101496.94
2023-10-02T08:20:21.829Z,101493.94
2023-10-02T08:23:25.314Z,101491.84
2023-10-02T08:26:32.281Z,101487.13
2023-10-02T08:29:38.095Z,101484.06
2023-10-02T08:32:41.073Z,101489.00
2023-10-02T08:35:48.309Z,101471.88
2023-10-02T08:38:55.133Z,101478.81
2023-10-02T08:42:11.297Z,101498.28
2023-10-02T08:45:21.995Z,101481.47
2023-10-02T08:48:26.730Z,101483.28
2023-10-02T08:51:37.739Z,101496.28
2023-10-02T08:54:42.681Z,101473.00
2023-10-02T08:58:10.523Z,101480.78
2023-10-02T09:01:22.414Z,101485.44
2023-10-02T09:04:28.264Z,101471.06
2023-10-02T09:07:52.337Z,101481.28
2023-10-02T09:11:00.131Z,101474.94
2023-10-02T09:14:27.660Z,101459.34
2023-10-02T09:17:45.919Z,101448.75
2023-10-02T09:20:56.004Z,101456.22
2023-10-02T09:24:03.341Z,101467.19
2023-10-02T09:27:32.435Z,101455.78
2023-10-02T09:30:34.955Z,101441.91
2023-10-02T09:33:50.976Z,101451.97
2023-10-02T09:37:56.144Z,101440.78
2023-10-02T09:41:17.210Z,101446.03
2023-10-02T09:44:28.905Z,101450.91
2023-10-02T09:47:32.050Z,101441.22
2023-10-02T09:50:42.650Z,101444.00
2023-10-02T09:54:06.420Z,101423.28
2023-10-02T09:57:17.665Z,101428.31
2023-10-02T10:00:38.891Z,101427.91
2023-10-02T10:03:51.292Z,101428.16
2023-10-02T10:07:25.254Z,101437.25
2023-10-02T10:10:30.507Z,101407.03
2023-10-02T10:13:48.181Z,101413.31
2023-10-02T10:16:51.872Z,101404.59
2023-10-02T10:20:10.995Z,101428.50
2023-10-02T10:23:33.368Z,101404.91
2023-10-02T10:26:46.272Z,101417.81
2023-10-02T10:30:09.867Z,101396.81
2023-10-02T10:33:12.971Z,101413.59
2023-10-02T10:36:39.194Z,101398.56
2023-10-02T10:40:01.440Z,101406.66
2023-10-02T10:43:07.171Z,101406.81
2023-10-02T10:46:14.235Z,101410.13
2023-10-02T10:49:25.698Z,101410.13
2023-10-02T10:52:37.800Z,101407.63
2023-10-02T10:55:41.715Z,101408.50
2023-10-02T10:58:45.533Z,101392.63
2023-10-02T11:02:14.082Z,101390.50
2023-10-02T11:05:21.702Z,101410.19
2023-10-02T11:08:30.381Z,101389.19
2023-10-02T11:11:49.756Z,101377.69
2023-10-02T11:14:53.461Z,101359.97
2023-10-02T11:18:23.066Z,101363.81
2023-10-02T11:21:26.262Z,101367.91
2023-10-02T11:24:29.210Z,101346.38
2023-10-02T11:27:36.145Z,101358.72
2023-10-02T11:30:38.875Z,101352.56
2023-10-02T11:33:42.333Z,101366.19
2023-10-02T11:36:54.358Z,101378.50
2023-10-02T11:39:57.970Z,101379.31
2023-10-02T11:43:03.464Z,101366.22
2023-10-02T11:46:08.559Z,101356.25
2023-10-02T11:49:14.863Z,101357.72
2023-10-02T11:52:20.691Z,101365.25
2023-10-02T11:55:25.518Z,101360.94
2023-10-02T11:58:29.757Z,101353.22
2023-10-02T12:01:32.377Z,101346.97
2023-10-02T12:04:35.522Z,101349.75
2023-10-02T12:07:40.357Z,101355.91
2023-10-02T12:10:43.478Z,101349.44
2023-10-02T12:13:46.182Z,101337.53
2023-10-02T12:16:49.329Z,101321.84
2023-10-02T12:19:53.309Z,101328.94
2023-10-02T12:22:56.341Z,101332.63
2023-10-02T12:26:00.403Z,101322.22
2023-10-02T12:29:04.211Z,101320.47
2023-10-02T12:32:07.209Z,101305.25
2023-10-02T12:35:10.613Z,101302.22
2023-10-02T12:38:15.425Z,101312.19
2023-10-02T12:41:26.128Z,101306.94
2023-10-02T12:44:32.533Z,101310.28
2023-10-02T12:47:38.576Z,101315.78
2023-10-02T12:50:41.413Z,101307.44
2023-10-02T12:53:45.225Z,101304.59
2023-10-02T12:56:47.750Z,101313.47
2023-10-02T12:59:50.821Z,101309.97
2023-10-02T13:02:53.670Z,101298.81
2023-10-02T13:05:59.564Z,101300.94
2023-10-02T13:09:17.666Z,101310.75
2023-10-02T13:12:21.010Z,101314.81
2023-10-02T13:15:25.828Z,101296.44
2023-10-02T13:18:28.958Z,101298.06
2023-10-02T13:21:49.911Z,101300.84
2023-10-02T13:24:53.082Z,101287.97
2023-10-02T13:27:55.767Z,101292.69
2023-10-02T13:30:58.613Z,101291.22
2023-10-02T13:34:04.562Z,101296.81
2023-10-02T13:37:07.378Z,101288.03
2023-10-02T13:40:33.225Z,101280.38
2023-10-02T13:43:38.907Z,101290.13
2023-10-02T13:46:43.398Z,101275.28
2023-10-02T13:49:46.680Z,101273.28
2023-10-02T13:52:54.462Z,101273.41
2023-10-02T13:56:05.153Z,101279.84
2023-10-02T13:59:07.757Z,101281.72
2023-10-02T14:02:13.190Z,101278.53
2023-10-02T14:05:16.906Z,101273.06
2023-10-02T14:08:21.185Z,101264.56
2023-10-02T14:11:25.203Z,101277.00
2023-10-02T14:14:28.249Z,101274.78
2023-10-02T14:17:35.425Z,101278.19
2023-10-02T14:20:40.419Z,101266.78
2023-10-02T14:23:45.026Z,101264.91
2023-10-02T14:26:48.019Z,101267.31
2023-10-02T14:29:50.610Z,101267.56
2023-10-02T14:32:54.187Z,101266.50
2023-10-02T14:35:57.829Z,101267.84
2023-10-02T14:39:00.734Z,101259.13
2023-10-02T14:42:05.806Z,101264.09
2023-10-02T14:45:11.043Z,101270.44
2023-10-02T14:51:27.343Z,101258.78
2023-10-02T14:54:29.846Z,101269.44
2023-10-02T14:57:32.627Z,101262.03
2023-10-02T15:00:36.097Z,101264.00
2023-10-02T15:03:41.520Z,101264.31
2023-10-02T15:06:44.707Z,101261.84
2023-10-02T15:09:47.665Z,101265.38
2023-10-02T15:12:54.234Z,101270.44
2023-10-02T15:15:58.781Z,101261.63
2023-10-02T15:19:02.545Z,101266.25
2023-10-02T15:22:05.554Z,101267.53
2023-10-02T15:25:09.303Z,101268.34
2023-10-02T15:28:12.079Z,101282.84
2023-10-02T15:31:15.673Z,101275.69
2023-10-02T15:34:20.133Z,101281.16
2023-10-02T15:37:22.918Z,101287.19
2023-10-02T15:40:26.220Z,101289.22
2023-10-02T15:43:30.538Z,101279.34
2023-10-02T15:46:34.804Z,101289.00
2023-10-02T15:49:39.493Z,101287.56
2023-10-02T15:52:44.440Z,101298.63
2023-10-02T15:55:47.745Z,101288.78
2023-10-02T15:58:50.807Z,101281.81
2023-10-02T16:01:54.563Z,101294.50
2023-10-02T16:04:58.246Z,101288.28
2023-10-02T16:08:01.677Z,101294.50
2023-10-02T16:11:05.307Z,101285.16
2023-10-02T16:14:07.948Z,101286.03
2023-10-02T16:17:11.573Z,101289.47
2023-10-02T16:20:15.753Z,101286.69
2023-10-02T16:23:19.255Z,101289.56
2023-10-02T16:26:24.309Z,101287.91
2023-10-02T16:29:27.840Z,101291.78
2023-10-02T16:32:31.270Z,101280.09
2023-10-02T16:35:36.601Z,101286.88
2023-10-02T16:38:48.740Z,101276.38
2023-10-02T16:41:59.069Z,101283.59
2023-10-02T16:45:02.033Z,101274.69
2023-10-02T16:48:07.149Z,101283.00
2023-10-02T16:51:13.971Z,101280.22
2023-10-02T16:54:16.783Z,101283.94
2023-10-02T16:57:19.278Z,101288.59
2023-10-02T17:00:23.852Z,101286.06
2023-10-02T17:03:27.851Z,101280.00
2023-10-02T17:06:32.399Z,101286.44
2023-10-02T17:09:34.938Z,101277.69
2023-10-02T17:12:37.837Z,101271.66
2023-10-02T17:15:40.956Z,101277.47
2023-10-02T17:18:44.433Z,101275.00
2023-10-02T17:21:48.002Z,101272.91
2023-10-02T17:24:51.674Z,101266.75
2023-10-02T17:28:00.796Z,101274.97
2023-10-02T17:31:05.089Z,101266.91
2023-10-02T17:34:11.199Z,101269.75
2023-10-02T17:37:16.150Z,101268.00
2023-10-02T17:40:23.725Z,101276.22
2023-10-02T17:43:30.809Z,101272.91
2023-10-02T17:46:36.071Z,101262.28
2023-10-02T17:49:47.304Z,101264.41
2023-10-02T17:52:51.371Z,101273.75
2023-10-02T17:55:55.520Z,101283.06
2023-10-02T17:59:00.037Z,101288.53
2023-10-02T18:02:06.897Z,101286.66
2023-10-02T18:05:11.915Z,101290.34
2023-10-02T18:08:18.874Z,101289.34
2023-10-02T18:11:27.500Z,101292.16
2023-10-02T18:14:37.511Z,101285.94
2023-10-02T18:17:48.766Z,101293.94
2023-10-02T18:20:52.924Z,101287.66
2023-10-02T18:23:58.466Z,101284.09
2023-10-02T18:27:03.230Z,101285.94
2023-10-02T18:30:11.220Z,101292.38
2023-10-02T18:33:21.884Z,101294.16
2023-10-02T18:36:26.697Z,101287.06
2023-10-02T18:39:31.488Z,101278.28
2023-10-02T18:42:36.833Z,101280.09
2023-10-02T18:45:41.114Z,101277.59
2023-10-02T18:48:46.631Z,101275.78
2023-10-02T18:51:51.822Z,101268.63
2023-10-02T18:54:55.914Z,101269.75
2023-10-02T18:58:00.220Z,101267.28
2023-10-02T19:01:18.651Z,101254.81
2023-10-02T19:04:23.596Z,101258.75
2023-10-02T19:07:28.570Z,101252.72
2023-10-02T19:10:35.747Z,101262.63
2023-10-02T19:13:40.857Z,101270.91
2023-10-02T19:16:46.244Z,101261.22
2023-10-02T19:19:51.348Z,101257.09
2023-10-02T19:22:58.139Z,101264.31
2023-10-02T19:26:02.479Z,101264.59
2023-10-02T19:29:07.166Z,101264.81
2023-10-02T19:32:12.995Z,101261.34
2023-10-02T19:35:17.188Z,101259.75
2023-10-02T19:38:22.584Z,101251.75
2023-10-02T19:41:27.795Z,101240.19
2023-10-02T19:44:32.801Z,101242.31
2023-10-02T19:47:36.849Z,101242.44
2023-10-02T19:50:40.652Z,101242.38
2023-10-02T19:53:45.962Z,101244.19
2023-10-02T19:56:51.232Z,101234.44
2023-10-02T19:59:54.922Z,101234.84
2023-10-02T20:02:58.458Z,101238.41
2023-10-02T20:06:12.266Z,101235.69
2023-10-02T20:09:17.664Z,101227.63
2023-10-02T20:12:23.329Z,101233.00
2023-10-02T20:15:28.947Z,101226.00
2023-10-02T20:18:33.207Z,101224.94
2023-10-02T20:21:38.862Z,101225.84
2023-10-02T20:24:42.312Z,101212.34
2023-10-02T20:27:48.890Z,101228.50
2023-10-02T20:30:52.371Z,101222.25
2023-10-02T20:33:57.427Z,101215.19
2023-10-02T20:37:02.374Z,101210.63
2023-10-02T20:40:08.407Z,101212.47
2023-10-02T20:43:13.523Z,101214.16
2023-10-02T20:46:16.346Z,101214.91
2023-10-02T20:49:19.411Z,101211.41
2023-10-02T20:52:22.079Z,101208.06
2023-10-02T20:55:27.618Z,101216.00
2023-10-02T20:58:30.484Z,101214.19
2023-10-02T21:01:33.746Z,101213.28
2023-10-02T21:04:36.798Z,101217.72
2023-10-02T21:07:43.062Z,101211.34
2023-10-02T21:10:45.674Z,101213.28
2023-10-02T21:13:49.989Z,101199.63
2023-10-02T21:16:52.784Z,101208.75
2023-10-02T21:19:57.489Z,101197.00
2023-10-02T21:23:00.055Z,101200.50
2023-10-02T21:26:06.169Z,101202.44
2023-10-02T21:29:08.646Z,101199.19
2023-10-02T21:32:11.694Z,101187.53
2023-10-02T21:35:14.260Z,101194.44
2023-10-02T21:38:17.031Z,101179.44
2023-10-02T21:41:20.647Z,101181.34
2023-10-02T21:44:23.661Z,101194.53
2023-10-02T21:47:26.290Z,101190.16
2023-10-02T21:50:29.851Z,101190.03
2023-10-02T21:53:35.793Z,101177.41
2023-10-02T21:56:38.804Z,101183.84
2023-10-02T21:59:41.447Z,101185.50
2023-10-02T22:02:44.779Z,101183.63
2023-10-02T22:05:48.098Z,101178.56
2023-10-02T22:08:53.898Z,101173.84
2023-10-02T22:11:56.513Z,101171.09
2023-10-02T22:15:01.423Z,101167.56
2023-10-02T22:18:05.509Z,101176.50
2023-10-02T22:21:21.739Z,101174.53
2023-10-02T22:24:25.785Z,101175.41
2023-10-02T22:27:28.522Z,101169.34
2023-10-02T22:30:35.068Z,101168.41
2023-10-02T22:33:39.408Z,101157.75
2023-10-02T22:36:42.272Z,101171.13
2023-10-02T22:39:45.140Z,101166.59
2023-10-02T22:42:49.991Z,101161.38
2023-10-02T22:45:53.010Z,101158.56
2023-10-02T22:48:57.241Z,101135.59
2023-10-02T22:52:01.481Z,101140.13
2023-10-02T22:55:07.512Z,101151.66
2023-10-02T22:58:10.577Z,101143.13
2023-10-02T23:01:13.826Z,101138.69
2023-10-02T23:04:16.974Z,101153.75
2023-10-02T23:07:20.065Z,101145.25
2023-10-02T23:10:26.240Z,101155.94
2023-10-02T23:13:29.259Z,101138.28
2023-10-02T23:16:34.272Z,101149.88
2023-10-02T23:19:41.985Z,101141.97
2023-10-02T23:22:47.282Z,101139.53
2023-10-02T23:25:50.150Z,101130.06
2023-10-02T23:28:53.002Z,101134.56
2023-10-02T23:31:55.775Z,101135.63
2023-10-02T23:34:58.536Z,101139.34
2023-10-02T23:38:01.888Z,101141.16
2023-10-02T23:41:05.676Z,101123.47
2023-10-02T23:44:13.436Z,101128.88
2023-10-02T23:47:17.827Z,101122.75
2023-10-02T23:50:20.662Z,101122.91
2023-10-02T23:53:27.053Z,101118.56
2023-10-02T23:56:30.269Z,101108.13
2023-10-02T23:59:34.252Z,101108.22
